sensor_id;sensor_type;location;lat;lon;timestamp;P1;durP1;ratioP1;P2;durP2;ratioP2
1370;SDS011;14306;49.942;11.570;2022-10-16T00:00:58;2.37;;;2.17;;
1370;SDS011;14306;49.942;11.570;2022-10-16T00:03:30;4.93;;;3.20;;
1370;SDS011;14306;49.942;11.570;2022-10-16T00:05:58;4.27;;;1.97;;
1370;SDS011;14306;49.942;11.570;2022-10-16T00:08:25;2.73;;;2.00;;
1370;SDS011;14306;49.942;11.570;2022-10-16T00:10:50;7.97;;;2.83;;
1370;SDS011;14306;49.942;11.570;2022-10-16T00:13:15;3.13;;;1.67;;
1370;SDS011;14306;49.942;11.570;2022-10-16T00:15:42;1.97;;;1.40;;
1370;SDS011;14306;49.942;11.570;2022-10-16T00:18:09;5.30;;;2.20;;
1370;SDS011;14306;49.942;11.570;2022-10-16T00:20:35;2.50;;;2.30;;
1370;SDS011;14306;49.942;11.570;2022-10-16T00:23:02;6.53;;;2.07;;
1370;SDS011;14306;49.942;11.570;2022-10-16T00:25:28;5.60;;;1.90;;
1370;SDS011;14306;49.942;11.570;2022-10-16T00:27:53;4.20;;;1.67;;
1370;SDS011;14306;49.942;11.570;2022-10-16T00:30:19;2.93;;;2.17;;
1370;SDS011;14306;49.942;11.570;2022-10-16T00:32:44;4.10;;;2.00;;
1370;SDS011;14306;49.942;11.570;2022-10-16T00:35:09;5.07;;;2.50;;
1370;SDS011;14306;49.942;11.570;2022-10-16T00:37:35;2.70;;;1.83;;
1370;SDS011;14306;49.942;11.570;2022-10-16T00:40:00;4.37;;;1.97;;
1370;SDS011;14306;49.942;11.570;2022-10-16T00:42:25;2.53;;;1.90;;
1370;SDS011;14306;49.942;11.570;2022-10-16T00:44:52;3.67;;;1.80;;
1370;SDS011;14306;49.942;11.570;2022-10-16T00:47:42;4.10;;;2.03;;
1370;SDS011;14306;49.942;11.570;2022-10-16T00:52:39;4.13;;;2.10;;
1370;SDS011;14306;49.942;11.570;2022-10-16T00:55:09;2.93;;;1.77;;
1370;SDS011;14306;49.942;11.570;2022-10-16T00:57:35;2.17;;;1.93;;
1370;SDS011;14306;49.942;11.570;2022-10-16T01:00:02;8.00;;;1.60;;
1370;SDS011;14306;49.942;11.570;2022-10-16T01:02:30;3.67;;;2.40;;
1370;SDS011;14306;49.942;11.570;2022-10-16T01:04:55;2.50;;;2.27;;
1370;SDS011;14306;49.942;11.570;2022-10-16T01:15:36;5.50;;;2.17;;
1370;SDS011;14306;49.942;11.570;2022-10-16T01:18:16;8.23;;;2.50;;
1370;SDS011;14306;49.942;11.570;2022-10-16T01:20:59;2.53;;;2.23;;
1370;SDS011;14306;49.942;11.570;2022-10-16T01:29:20;4.50;;;2.00;;
1370;SDS011;14306;49.942;11.570;2022-10-16T01:31:59;13.30;;;2.17;;
1370;SDS011;14306;49.942;11.570;2022-10-16T01:34:34;2.40;;;2.03;;
1370;SDS011;14306;49.942;11.570;2022-10-16T01:37:05;2.87;;;2.00;;
1370;SDS011;14306;49.942;11.570;2022-10-16T01:39:39;4.07;;;2.20;;
1370;SDS011;14306;49.942;11.570;2022-10-16T01:42:11;11.50;;;1.80;;
1370;SDS011;14306;49.942;11.570;2022-10-16T01:44:46;2.37;;;2.00;;
1370;SDS011;14306;49.942;11.570;2022-10-16T01:47:13;2.37;;;2.17;;
1370;SDS011;14306;49.942;11.570;2022-10-16T01:49:40;2.40;;;1.90;;
1370;SDS011;14306;49.942;11.570;2022-10-16T01:52:09;3.67;;;1.77;;
1370;SDS011;14306;49.942;11.570;2022-10-16T01:54:40;3.20;;;1.70;;
1370;SDS011;14306;49.942;11.570;2022-10-16T01:57:07;2.07;;;1.97;;
1370;SDS011;14306;49.942;11.570;2022-10-16T01:59:35;4.73;;;1.90;;
1370;SDS011;14306;49.942;11.570;2022-10-16T02:02:05;2.50;;;2.30;;
1370;SDS011;14306;49.942;11.570;2022-10-16T02:04:36;2.83;;;1.90;;
1370;SDS011;14306;49.942;11.570;2022-10-16T02:07:04;4.40;;;2.17;;
1370;SDS011;14306;49.942;11.570;2022-10-16T02:09:32;1.80;;;1.70;;
1370;SDS011;14306;49.942;11.570;2022-10-16T02:11:59;6.00;;;2.10;;
1370;SDS011;14306;49.942;11.570;2022-10-16T02:14:29;4.07;;;2.13;;
1370;SDS011;14306;49.942;11.570;2022-10-16T02:16:55;3.67;;;2.00;;
1370;SDS011;14306;49.942;11.570;2022-10-16T02:19:20;2.13;;;1.60;;
1370;SDS011;14306;49.942;11.570;2022-10-16T02:21:57;7.10;;;1.40;;
1370;SDS011;14306;49.942;11.570;2022-10-16T02:29:38;3.23;;;1.40;;
1370;SDS011;14306;49.942;11.570;2022-10-16T02:32:10;4.77;;;2.30;;
1370;SDS011;14306;49.942;11.570;2022-10-16T02:34:39;3.87;;;2.33;;
1370;SDS011;14306;49.942;11.570;2022-10-16T02:37:05;6.30;;;1.33;;
1370;SDS011;14306;49.942;11.570;2022-10-16T02:39:32;1.77;;;1.47;;
1370;SDS011;14306;49.942;11.570;2022-10-16T02:41:58;4.40;;;1.77;;
1370;SDS011;14306;49.942;11.570;2022-10-16T02:44:24;4.10;;;2.60;;
1370;SDS011;14306;49.942;11.570;2022-10-16T02:46:49;2.90;;;1.37;;
1370;SDS011;14306;49.942;11.570;2022-10-16T02:49:14;3.70;;;1.77;;
1370;SDS011;14306;49.942;11.570;2022-10-16T02:51:40;1.67;;;1.20;;
1370;SDS011;14306;49.942;11.570;2022-10-16T02:54:05;1.40;;;1.30;;
1370;SDS011;14306;49.942;11.570;2022-10-16T02:56:31;3.70;;;1.90;;
1370;SDS011;14306;49.942;11.570;2022-10-16T02:58:56;2.60;;;1.83;;
1370;SDS011;14306;49.942;11.570;2022-10-16T03:01:22;4.33;;;1.73;;
1370;SDS011;14306;49.942;11.570;2022-10-16T03:03:47;1.80;;;1.60;;
1370;SDS011;14306;49.942;11.570;2022-10-16T03:06:13;4.93;;;1.60;;
1370;SDS011;14306;49.942;11.570;2022-10-16T03:08:38;3.27;;;1.53;;
1370;SDS011;14306;49.942;11.570;2022-10-16T03:11:04;5.47;;;1.60;;
1370;SDS011;14306;49.942;11.570;2022-10-16T03:13:30;2.07;;;1.83;;
1370;SDS011;14306;49.942;11.570;2022-10-16T03:15:55;2.37;;;1.50;;
1370;SDS011;14306;49.942;11.570;2022-10-16T03:18:20;7.67;;;2.30;;
1370;SDS011;14306;49.942;11.570;2022-10-16T03:20:46;3.03;;;1.40;;
1370;SDS011;14306;49.942;11.570;2022-10-16T03:23:11;1.83;;;1.37;;
1370;SDS011;14306;49.942;11.570;2022-10-16T03:25:37;2.33;;;1.57;;
1370;SDS011;14306;49.942;11.570;2022-10-16T03:28:02;2.60;;;2.20;;
1370;SDS011;14306;49.942;11.570;2022-10-16T03:30:28;2.50;;;1.20;;
1370;SDS011;14306;49.942;11.570;2022-10-16T03:32:54;3.03;;;1.80;;
1370;SDS011;14306;49.942;11.570;2022-10-16T03:35:23;1.70;;;1.60;;
1370;SDS011;14306;49.942;11.570;2022-10-16T03:37:49;2.50;;;1.53;;
1370;SDS011;14306;49.942;11.570;2022-10-16T03:40:15;2.63;;;1.80;;
1370;SDS011;14306;49.942;11.570;2022-10-16T03:42:42;2.40;;;1.60;;
1370;SDS011;14306;49.942;11.570;2022-10-16T03:45:08;3.67;;;1.50;;
1370;SDS011;14306;49.942;11.570;2022-10-16T03:47:34;4.53;;;1.43;;
1370;SDS011;14306;49.942;11.570;2022-10-16T03:49:59;1.83;;;1.27;;
1370;SDS011;14306;49.942;11.570;2022-10-16T03:52:25;3.90;;;1.57;;
1370;SDS011;14306;49.942;11.570;2022-10-16T03:54:50;2.53;;;2.10;;
1370;SDS011;14306;49.942;11.570;2022-10-16T03:57:16;2.77;;;1.67;;
1370;SDS011;14306;49.942;11.570;2022-10-16T03:59:42;2.03;;;1.80;;
1370;SDS011;14306;49.942;11.570;2022-10-16T04:02:07;6.17;;;1.83;;
1370;SDS011;14306;49.942;11.570;2022-10-16T04:04:32;3.30;;;1.90;;
1370;SDS011;14306;49.942;11.570;2022-10-16T04:06:58;3.13;;;1.40;;
1370;SDS011;14306;49.942;11.570;2022-10-16T04:09:23;6.73;;;1.90;;
1370;SDS011;14306;49.942;11.570;2022-10-16T04:11:48;1.60;;;1.33;;
1370;SDS011;14306;49.942;11.570;2022-10-16T04:14:14;1.77;;;1.40;;
1370;SDS011;14306;49.942;11.570;2022-10-16T04:16:39;2.30;;;1.60;;
1370;SDS011;14306;49.942;11.570;2022-10-16T04:19:04;2.90;;;1.83;;
1370;SDS011;14306;49.942;11.570;2022-10-16T04:21:30;2.10;;;1.90;;
1370;SDS011;14306;49.942;11.570;2022-10-16T04:23:55;3.70;;;2.00;;
1370;SDS011;14306;49.942;11.570;2022-10-16T04:26:20;5.20;;;1.90;;
1370;SDS011;14306;49.942;11.570;2022-10-16T04:28:46;4.30;;;1.87;;
1370;SDS011;14306;49.942;11.570;2022-10-16T04:31:11;2.50;;;1.93;;
1370;SDS011;14306;49.942;11.570;2022-10-16T04:33:36;3.63;;;1.53;;
1370;SDS011;14306;49.942;11.570;2022-10-16T04:36:02;1.53;;;1.20;;
1370;SDS011;14306;49.942;11.570;2022-10-16T04:38:28;3.83;;;1.83;;
1370;SDS011;14306;49.942;11.570;2022-10-16T04:40:54;2.70;;;1.53;;
1370;SDS011;14306;49.942;11.570;2022-10-16T04:43:19;3.23;;;1.40;;
1370;SDS011;14306;49.942;11.570;2022-10-16T04:45:45;7.87;;;1.40;;
1370;SDS011;14306;49.942;11.570;2022-10-16T04:48:10;1.67;;;1.40;;
1370;SDS011;14306;49.942;11.570;2022-10-16T04:50:36;2.30;;;1.43;;
1370;SDS011;14306;49.942;11.570;2022-10-16T04:53:01;4.33;;;1.93;;
1370;SDS011;14306;49.942;11.570;2022-10-16T04:55:27;1.87;;;1.50;;
1370;SDS011;14306;49.942;11.570;2022-10-16T04:57:52;2.50;;;1.77;;
1370;SDS011;14306;49.942;11.570;2022-10-16T05:00:17;3.53;;;1.80;;
1370;SDS011;14306;49.942;11.570;2022-10-16T05:02:43;2.30;;;1.47;;
1370;SDS011;14306;49.942;11.570;2022-10-16T05:05:08;8.90;;;1.50;;
1370;SDS011;14306;49.942;11.570;2022-10-16T05:07:34;15.63;;;2.83;;
1370;SDS011;14306;49.942;11.570;2022-10-16T05:09:59;2.63;;;1.40;;
1370;SDS011;14306;49.942;11.570;2022-10-16T05:12:24;1.77;;;1.47;;
1370;SDS011;14306;49.942;11.570;2022-10-16T05:14:50;1.67;;;1.57;;
1370;SDS011;14306;49.942;11.570;2022-10-16T05:17:15;7.83;;;2.60;;
1370;SDS011;14306;49.942;11.570;2022-10-16T05:19:40;2.50;;;1.80;;
1370;SDS011;14306;49.942;11.570;2022-10-16T05:22:05;2.30;;;1.47;;
1370;SDS011;14306;49.942;11.570;2022-10-16T05:24:31;2.90;;;1.90;;
1370;SDS011;14306;49.942;11.570;2022-10-16T05:26:56;4.67;;;1.70;;
1370;SDS011;14306;49.942;11.570;2022-10-16T05:29:22;3.07;;;2.20;;
1370;SDS011;14306;49.942;11.570;2022-10-16T05:31:49;4.43;;;1.40;;
1370;SDS011;14306;49.942;11.570;2022-10-16T05:34:16;3.30;;;1.30;;
1370;SDS011;14306;49.942;11.570;2022-10-16T05:36:41;1.60;;;1.50;;
1370;SDS011;14306;49.942;11.570;2022-10-16T05:39:07;2.10;;;1.43;;
1370;SDS011;14306;49.942;11.570;2022-10-16T05:41:32;17.53;;;2.03;;
1370;SDS011;14306;49.942;11.570;2022-10-16T05:43:58;1.80;;;1.50;;
1370;SDS011;14306;49.942;11.570;2022-10-16T05:46:23;2.20;;;1.57;;
1370;SDS011;14306;49.942;11.570;2022-10-16T05:48:51;3.70;;;1.53;;
1370;SDS011;14306;49.942;11.570;2022-10-16T05:51:17;4.87;;;1.77;;
1370;SDS011;14306;49.942;11.570;2022-10-16T05:53:43;3.17;;;1.70;;
1370;SDS011;14306;49.942;11.570;2022-10-16T05:56:09;4.97;;;2.53;;
1370;SDS011;14306;49.942;11.570;2022-10-16T05:58:36;2.73;;;1.90;;
1370;SDS011;14306;49.942;11.570;2022-10-16T06:01:03;6.93;;;2.17;;
1370;SDS011;14306;49.942;11.570;2022-10-16T06:03:32;3.23;;;1.60;;
1370;SDS011;14306;49.942;11.570;2022-10-16T06:05:57;3.67;;;1.90;;
1370;SDS011;14306;49.942;11.570;2022-10-16T06:08:23;5.63;;;2.23;;
1370;SDS011;14306;49.942;11.570;2022-10-16T06:10:49;7.50;;;3.37;;
1370;SDS011;14306;49.942;11.570;2022-10-16T06:13:25;4.03;;;1.80;;
1370;SDS011;14306;49.942;11.570;2022-10-16T06:15:50;8.60;;;2.20;;
1370;SDS011;14306;49.942;11.570;2022-10-16T06:18:16;4.60;;;1.50;;
1370;SDS011;14306;49.942;11.570;2022-10-16T06:20:41;4.43;;;2.20;;
1370;SDS011;14306;49.942;11.570;2022-10-16T06:23:06;5.20;;;2.13;;
1370;SDS011;14306;49.942;11.570;2022-10-16T06:25:31;2.50;;;2.10;;
1370;SDS011;14306;49.942;11.570;2022-10-16T06:27:57;2.43;;;1.50;;
1370;SDS011;14306;49.942;11.570;2022-10-16T06:30:22;3.13;;;1.70;;
1370;SDS011;14306;49.942;11.570;2022-10-16T06:32:47;2.10;;;1.43;;
1370;SDS011;14306;49.942;11.570;2022-10-16T06:35:13;4.23;;;2.00;;
1370;SDS011;14306;49.942;11.570;2022-10-16T06:37:38;4.10;;;1.80;;
1370;SDS011;14306;49.942;11.570;2022-10-16T06:40:04;4.50;;;1.70;;
1370;SDS011;14306;49.942;11.570;2022-10-16T06:42:30;7.00;;;3.20;;
1370;SDS011;14306;49.942;11.570;2022-10-16T06:44:55;3.87;;;1.83;;
1370;SDS011;14306;49.942;11.570;2022-10-16T06:47:21;3.20;;;1.73;;
1370;SDS011;14306;49.942;11.570;2022-10-16T06:49:46;2.60;;;1.33;;
1370;SDS011;14306;49.942;11.570;2022-10-16T06:52:11;3.30;;;1.90;;
1370;SDS011;14306;49.942;11.570;2022-10-16T06:54:37;2.73;;;2.07;;
1370;SDS011;14306;49.942;11.570;2022-10-16T06:57:02;1.83;;;1.40;;
1370;SDS011;14306;49.942;11.570;2022-10-16T06:59:27;2.57;;;1.60;;
1370;SDS011;14306;49.942;11.570;2022-10-16T07:01:53;1.97;;;1.33;;
1370;SDS011;14306;49.942;11.570;2022-10-16T07:04:18;4.87;;;1.47;;
1370;SDS011;14306;49.942;11.570;2022-10-16T07:06:44;3.87;;;1.50;;
1370;SDS011;14306;49.942;11.570;2022-10-16T07:09:09;3.30;;;1.37;;
1370;SDS011;14306;49.942;11.570;2022-10-16T07:11:36;4.10;;;1.20;;
1370;SDS011;14306;49.942;11.570;2022-10-16T07:14:03;1.67;;;1.40;;
1370;SDS011;14306;49.942;11.570;2022-10-16T07:16:29;2.93;;;1.27;;
1370;SDS011;14306;49.942;11.570;2022-10-16T07:19:00;3.63;;;1.43;;
1370;SDS011;14306;49.942;11.570;2022-10-16T07:21:28;6.63;;;1.70;;
1370;SDS011;14306;49.942;11.570;2022-10-16T07:24:02;1.70;;;1.60;;
1370;SDS011;14306;49.942;11.570;2022-10-16T07:26:29;4.70;;;1.83;;
1370;SDS011;14306;49.942;11.570;2022-10-16T07:28:56;1.73;;;1.63;;
1370;SDS011;14306;49.942;11.570;2022-10-16T07:31:22;4.20;;;2.90;;
1370;SDS011;14306;49.942;11.570;2022-10-16T07:33:48;3.37;;;2.60;;
1370;SDS011;14306;49.942;11.570;2022-10-16T07:36:14;3.27;;;2.57;;
1370;SDS011;14306;49.942;11.570;2022-10-16T07:38:42;6.67;;;3.93;;
1370;SDS011;14306;49.942;11.570;2022-10-16T07:41:09;8.13;;;3.00;;
1370;SDS011;14306;49.942;11.570;2022-10-16T07:43:37;3.10;;;2.50;;
1370;SDS011;14306;49.942;11.570;2022-10-16T07:46:02;2.70;;;1.97;;
1370;SDS011;14306;49.942;11.570;2022-10-16T07:48:28;3.20;;;2.10;;
1370;SDS011;14306;49.942;11.570;2022-10-16T07:50:59;4.37;;;1.90;;
1370;SDS011;14306;49.942;11.570;2022-10-16T07:53:25;2.87;;;1.17;;
1370;SDS011;14306;49.942;11.570;2022-10-16T07:55:51;3.83;;;1.40;;
1370;SDS011;14306;49.942;11.570;2022-10-16T07:58:17;1.97;;;1.50;;
1370;SDS011;14306;49.942;11.570;2022-10-16T08:00:42;2.17;;;1.30;;
1370;SDS011;14306;49.942;11.570;2022-10-16T08:03:08;5.97;;;2.27;;
1370;SDS011;14306;49.942;11.570;2022-10-16T08:05:33;9.27;;;6.67;;
1370;SDS011;14306;49.942;11.570;2022-10-16T08:07:59;3.17;;;2.40;;
1370;SDS011;14306;49.942;11.570;2022-10-16T08:10:26;5.00;;;1.77;;
1370;SDS011;14306;49.942;11.570;2022-10-16T08:12:52;4.30;;;1.63;;
1370;SDS011;14306;49.942;11.570;2022-10-16T08:15:17;3.73;;;1.63;;
1370;SDS011;14306;49.942;11.570;2022-10-16T08:17:44;5.30;;;2.00;;
1370;SDS011;14306;49.942;11.570;2022-10-16T08:20:09;6.93;;;1.40;;
1370;SDS011;14306;49.942;11.570;2022-10-16T08:22:35;3.17;;;1.57;;
1370;SDS011;14306;49.942;11.570;2022-10-16T08:25:00;5.03;;;1.40;;
1370;SDS011;14306;49.942;11.570;2022-10-16T08:27:30;3.60;;;1.50;;
1370;SDS011;14306;49.942;11.570;2022-10-16T08:29:56;1.83;;;1.40;;
1370;SDS011;14306;49.942;11.570;2022-10-16T08:32:22;2.50;;;1.20;;
1370;SDS011;14306;49.942;11.570;2022-10-16T08:34:47;3.47;;;1.47;;
1370;SDS011;14306;49.942;11.570;2022-10-16T08:37:12;4.43;;;1.83;;
1370;SDS011;14306;49.942;11.570;2022-10-16T08:39:38;3.47;;;2.10;;
1370;SDS011;14306;49.942;11.570;2022-10-16T08:49:57;4.10;;;2.07;;
1370;SDS011;14306;49.942;11.570;2022-10-16T08:52:29;3.93;;;2.40;;
1370;SDS011;14306;49.942;11.570;2022-10-16T08:54:57;2.30;;;2.00;;
1370;SDS011;14306;49.942;11.570;2022-10-16T08:57:24;1.23;;;1.13;;
1370;SDS011;14306;49.942;11.570;2022-10-16T08:59:51;5.07;;;1.40;;
1370;SDS011;14306;49.942;11.570;2022-10-16T09:05:07;5.17;;;1.37;;
1370;SDS011;14306;49.942;11.570;2022-10-16T09:07:45;1.80;;;1.13;;
1370;SDS011;14306;49.942;11.570;2022-10-16T09:21:10;4.10;;;1.30;;
1370;SDS011;14306;49.942;11.570;2022-10-16T09:23:41;3.53;;;1.80;;
1370;SDS011;14306;49.942;11.570;2022-10-16T09:26:09;2.73;;;1.20;;
1370;SDS011;14306;49.942;11.570;2022-10-16T09:28:37;4.00;;;0.90;;
1370;SDS011;14306;49.942;11.570;2022-10-16T09:31:03;1.30;;;1.20;;
1370;SDS011;14306;49.942;11.570;2022-10-16T09:33:29;1.37;;;1.27;;
1370;SDS011;14306;49.942;11.570;2022-10-16T09:35:59;5.37;;;1.20;;
1370;SDS011;14306;49.942;11.570;2022-10-16T09:38:26;4.07;;;1.20;;
1370;SDS011;14306;49.942;11.570;2022-10-16T09:40:55;2.70;;;1.40;;
1370;SDS011;14306;49.942;11.570;2022-10-16T09:46:03;3.17;;;1.10;;
1370;SDS011;14306;49.942;11.570;2022-10-16T09:48:43;8.93;;;1.50;;
1370;SDS011;14306;49.942;11.570;2022-10-16T09:51:26;4.70;;;1.10;;
1370;SDS011;14306;49.942;11.570;2022-10-16T09:53:58;12.23;;;2.03;;
1370;SDS011;14306;49.942;11.570;2022-10-16T09:56:32;3.40;;;2.13;;
1370;SDS011;14306;49.942;11.570;2022-10-16T09:59:01;4.27;;;1.97;;
1370;SDS011;14306;49.942;11.570;2022-10-16T10:01:37;9.53;;;3.07;;
1370;SDS011;14306;49.942;11.570;2022-10-16T10:04:07;1.67;;;1.30;;
1370;SDS011;14306;49.942;11.570;2022-10-16T10:09:17;2.47;;;1.53;;
1370;SDS011;14306;49.942;11.570;2022-10-16T10:11:59;2.10;;;1.20;;
1370;SDS011;14306;49.942;11.570;2022-10-16T10:14:34;1.53;;;1.27;;
1370;SDS011;14306;49.942;11.570;2022-10-16T10:19:37;1.50;;;1.20;;
1370;SDS011;14306;49.942;11.570;2022-10-16T10:22:25;1.77;;;1.43;;
1370;SDS011;14306;49.942;11.570;2022-10-16T10:25:00;5.17;;;1.70;;
1370;SDS011;14306;49.942;11.570;2022-10-16T10:27:43;3.20;;;1.30;;
1370;SDS011;14306;49.942;11.570;2022-10-16T10:30:35;2.30;;;1.53;;
1370;SDS011;14306;49.942;11.570;2022-10-16T10:38:49;1.50;;;1.10;;
1370;SDS011;14306;49.942;11.570;2022-10-16T10:46:34;2.50;;;1.20;;
1370;SDS011;14306;49.942;11.570;2022-10-16T10:49:17;1.40;;;1.30;;
1370;SDS011;14306;49.942;11.570;2022-10-16T10:54:29;3.13;;;1.30;;
1370;SDS011;14306;49.942;11.570;2022-10-16T10:57:10;2.50;;;1.10;;
1370;SDS011;14306;49.942;11.570;2022-10-16T11:02:40;1.50;;;1.37;;
1370;SDS011;14306;49.942;11.570;2022-10-16T11:07:42;2.77;;;1.80;;
1370;SDS011;14306;49.942;11.570;2022-10-16T11:10:17;3.10;;;1.40;;
1370;SDS011;14306;49.942;11.570;2022-10-16T11:15:47;4.00;;;1.77;;
1370;SDS011;14306;49.942;11.570;2022-10-16T11:18:18;4.03;;;1.70;;
1370;SDS011;14306;49.942;11.570;2022-10-16T11:20:57;1.60;;;1.50;;
1370;SDS011;14306;49.942;11.570;2022-10-16T11:23:48;1.70;;;1.50;;
1370;SDS011;14306;49.942;11.570;2022-10-16T11:26:27;4.20;;;2.20;;
1370;SDS011;14306;49.942;11.570;2022-10-16T11:28:56;3.13;;;1.80;;
1370;SDS011;14306;49.942;11.570;2022-10-16T11:34:06;2.27;;;2.00;;
1370;SDS011;14306;49.942;11.570;2022-10-16T11:36:48;9.43;;;2.73;;
1370;SDS011;14306;49.942;11.570;2022-10-16T11:39:33;2.00;;;1.50;;
1370;SDS011;14306;49.942;11.570;2022-10-16T11:42:02;5.30;;;2.10;;
1370;SDS011;14306;49.942;11.570;2022-10-16T11:44:55;3.90;;;2.00;;
1370;SDS011;14306;49.942;11.570;2022-10-16T11:47:40;3.90;;;1.90;;
1370;SDS011;14306;49.942;11.570;2022-10-16T11:55:42;2.60;;;1.63;;
1370;SDS011;14306;49.942;11.570;2022-10-16T12:00:43;4.80;;;3.30;;
1370;SDS011;14306;49.942;11.570;2022-10-16T12:06:13;6.53;;;1.60;;
1370;SDS011;14306;49.942;11.570;2022-10-16T12:08:43;2.10;;;1.60;;
1370;SDS011;14306;49.942;11.570;2022-10-16T12:11:19;1.77;;;1.67;;
1370;SDS011;14306;49.942;11.570;2022-10-16T12:16:33;2.40;;;2.10;;
1370;SDS011;14306;49.942;11.570;2022-10-16T12:19:14;3.50;;;1.90;;
1370;SDS011;14306;49.942;11.570;2022-10-16T12:21:41;3.43;;;1.70;;
1370;SDS011;14306;49.942;11.570;2022-10-16T12:24:19;2.90;;;1.40;;
1370;SDS011;14306;49.942;11.570;2022-10-16T12:26:54;3.17;;;2.33;;
1370;SDS011;14306;49.942;11.570;2022-10-16T12:32:04;1.67;;;1.20;;
1370;SDS011;14306;49.942;11.570;2022-10-16T12:34:44;2.60;;;2.10;;
1370;SDS011;14306;49.942;11.570;2022-10-16T12:37:11;4.67;;;2.30;;
1370;SDS011;14306;49.942;11.570;2022-10-16T12:39:43;2.60;;;1.60;;
1370;SDS011;14306;49.942;11.570;2022-10-16T12:42:22;10.20;;;2.60;;
1370;SDS011;14306;49.942;11.570;2022-10-16T12:44:51;7.73;;;3.23;;
1370;SDS011;14306;49.942;11.570;2022-10-16T12:47:21;3.63;;;2.17;;
1370;SDS011;14306;49.942;11.570;2022-10-16T12:49:56;3.60;;;2.57;;
1370;SDS011;14306;49.942;11.570;2022-10-16T12:52:43;5.17;;;2.63;;
1370;SDS011;14306;49.942;11.570;2022-10-16T12:55:15;3.00;;;2.20;;
1370;SDS011;14306;49.942;11.570;2022-10-16T13:00:27;3.77;;;2.27;;
1370;SDS011;14306;49.942;11.570;2022-10-16T13:19:37;11.70;;;2.97;;
1370;SDS011;14306;49.942;11.570;2022-10-16T13:22:24;3.27;;;2.33;;
1370;SDS011;14306;49.942;11.570;2022-10-16T13:27:46;2.70;;;2.10;;
1370;SDS011;14306;49.942;11.570;2022-10-16T13:30:43;2.67;;;1.77;;
1370;SDS011;14306;49.942;11.570;2022-10-16T13:33:17;5.00;;;2.80;;
1370;SDS011;14306;49.942;11.570;2022-10-16T13:36:04;4.80;;;1.37;;
1370;SDS011;14306;49.942;11.570;2022-10-16T13:38:35;7.37;;;4.10;;
1370;SDS011;14306;49.942;11.570;2022-10-16T13:43:41;7.37;;;2.00;;
1370;SDS011;14306;49.942;11.570;2022-10-16T13:46:16;7.73;;;1.90;;
1370;SDS011;14306;49.942;11.570;2022-10-16T13:48:56;5.10;;;2.03;;
1370;SDS011;14306;49.942;11.570;2022-10-16T13:51:30;2.80;;;1.73;;
1370;SDS011;14306;49.942;11.570;2022-10-16T13:53:56;6.80;;;2.33;;
1370;SDS011;14306;49.942;11.570;2022-10-16T13:56:24;3.00;;;2.30;;
1370;SDS011;14306;49.942;11.570;2022-10-16T13:59:02;2.90;;;2.50;;
1370;SDS011;14306;49.942;11.570;2022-10-16T14:01:31;2.07;;;1.57;;
1370;SDS011;14306;49.942;11.570;2022-10-16T14:04:06;4.23;;;1.80;;
1370;SDS011;14306;49.942;11.570;2022-10-16T14:06:34;6.00;;;1.83;;
1370;SDS011;14306;49.942;11.570;2022-10-16T14:09:08;3.70;;;2.20;;
1370;SDS011;14306;49.942;11.570;2022-10-16T14:11:46;5.20;;;2.00;;
1370;SDS011;14306;49.942;11.570;2022-10-16T14:14:16;3.73;;;1.50;;
1370;SDS011;14306;49.942;11.570;2022-10-16T14:16:43;10.47;;;2.13;;
1370;SDS011;14306;49.942;11.570;2022-10-16T14:19:13;3.40;;;1.50;;
1370;SDS011;14306;49.942;11.570;2022-10-16T14:21:42;2.50;;;1.77;;
1370;SDS011;14306;49.942;11.570;2022-10-16T14:24:11;6.33;;;1.77;;
1370;SDS011;14306;49.942;11.570;2022-10-16T14:26:41;1.73;;;1.57;;
1370;SDS011;14306;49.942;11.570;2022-10-16T14:29:15;8.03;;;2.47;;
1370;SDS011;14306;49.942;11.570;2022-10-16T14:31:53;2.47;;;2.27;;
1370;SDS011;14306;49.942;11.570;2022-10-16T14:39:49;2.47;;;1.63;;
1370;SDS011;14306;49.942;11.570;2022-10-16T14:42:18;2.20;;;1.93;;
1370;SDS011;14306;49.942;11.570;2022-10-16T14:44:48;5.13;;;2.30;;
1370;SDS011;14306;49.942;11.570;2022-10-16T14:47:18;7.53;;;2.00;;
1370;SDS011;14306;49.942;11.570;2022-10-16T14:49:47;2.40;;;1.80;;
1370;SDS011;14306;49.942;11.570;2022-10-16T14:52:13;4.00;;;3.33;;
1370;SDS011;14306;49.942;11.570;2022-10-16T14:54:39;4.40;;;3.60;;
1370;SDS011;14306;49.942;11.570;2022-10-16T14:57:04;5.80;;;3.40;;
1370;SDS011;14306;49.942;11.570;2022-10-16T14:59:37;5.60;;;3.77;;
1370;SDS011;14306;49.942;11.570;2022-10-16T15:05:12;11.03;;;5.40;;
1370;SDS011;14306;49.942;11.570;2022-10-16T15:07:43;8.70;;;5.47;;
1370;SDS011;14306;49.942;11.570;2022-10-16T15:10:10;3.77;;;2.30;;
1370;SDS011;14306;49.942;11.570;2022-10-16T15:12:37;5.30;;;2.20;;
1370;SDS011;14306;49.942;11.570;2022-10-16T15:15:09;3.83;;;2.07;;
1370;SDS011;14306;49.942;11.570;2022-10-16T15:17:46;3.83;;;1.80;;
1370;SDS011;14306;49.942;11.570;2022-10-16T15:20:11;2.87;;;2.30;;
1370;SDS011;14306;49.942;11.570;2022-10-16T15:22:37;2.33;;;1.63;;
1370;SDS011;14306;49.942;11.570;2022-10-16T15:25:07;3.40;;;2.10;;
1370;SDS011;14306;49.942;11.570;2022-10-16T15:27:50;2.70;;;2.30;;
1370;SDS011;14306;49.942;11.570;2022-10-16T15:30:15;2.27;;;1.97;;
1370;SDS011;14306;49.942;11.570;2022-10-16T15:32:41;3.17;;;2.00;;
1370;SDS011;14306;49.942;11.570;2022-10-16T15:35:08;3.50;;;2.13;;
1370;SDS011;14306;49.942;11.570;2022-10-16T15:37:33;4.10;;;1.60;;
1370;SDS011;14306;49.942;11.570;2022-10-16T15:39:59;3.00;;;2.07;;
1370;SDS011;14306;49.942;11.570;2022-10-16T15:42:24;3.10;;;2.20;;
1370;SDS011;14306;49.942;11.570;2022-10-16T15:44:49;6.70;;;2.33;;
1370;SDS011;14306;49.942;11.570;2022-10-16T15:47:15;4.30;;;2.00;;
1370;SDS011;14306;49.942;11.570;2022-10-16T15:49:40;8.53;;;2.80;;
1370;SDS011;14306;49.942;11.570;2022-10-16T15:52:05;4.67;;;3.03;;
1370;SDS011;14306;49.942;11.570;2022-10-16T15:54:31;4.40;;;2.60;;
1370;SDS011;14306;49.942;11.570;2022-10-16T15:56:56;5.60;;;3.33;;
1370;SDS011;14306;49.942;11.570;2022-10-16T15:59:21;3.80;;;3.50;;
1370;SDS011;14306;49.942;11.570;2022-10-16T16:01:46;4.83;;;3.13;;
1370;SDS011;14306;49.942;11.570;2022-10-16T16:04:12;7.73;;;3.20;;
1370;SDS011;14306;49.942;11.570;2022-10-16T16:06:37;6.00;;;3.80;;
1370;SDS011;14306;49.942;11.570;2022-10-16T16:09:04;4.90;;;3.77;;
1370;SDS011;14306;49.942;11.570;2022-10-16T16:11:30;5.63;;;4.03;;
1370;SDS011;14306;49.942;11.570;2022-10-16T16:13:56;4.03;;;2.60;;
1370;SDS011;14306;49.942;11.570;2022-10-16T16:16:22;6.40;;;3.80;;
1370;SDS011;14306;49.942;11.570;2022-10-16T16:18:47;4.23;;;3.13;;
1370;SDS011;14306;49.942;11.570;2022-10-16T16:21:14;6.83;;;4.80;;
1370;SDS011;14306;49.942;11.570;2022-10-16T16:23:39;10.73;;;4.40;;
1370;SDS011;14306;49.942;11.570;2022-10-16T16:28:41;9.60;;;4.00;;
1370;SDS011;14306;49.942;11.570;2022-10-16T16:31:08;8.80;;;3.80;;
1370;SDS011;14306;49.942;11.570;2022-10-16T16:33:33;8.00;;;3.83;;
1370;SDS011;14306;49.942;11.570;2022-10-16T16:36:00;6.67;;;3.10;;
1370;SDS011;14306;49.942;11.570;2022-10-16T16:38:27;4.30;;;3.57;;
1370;SDS011;14306;49.942;11.570;2022-10-16T16:40:53;8.30;;;5.10;;
1370;SDS011;14306;49.942;11.570;2022-10-16T16:43:19;6.80;;;4.70;;
1370;SDS011;14306;49.942;11.570;2022-10-16T16:45:47;6.97;;;4.60;;
1370;SDS011;14306;49.942;11.570;2022-10-16T16:48:12;9.20;;;5.10;;
1370;SDS011;14306;49.942;11.570;2022-10-16T16:50:38;6.00;;;4.47;;
1370;SDS011;14306;49.942;11.570;2022-10-16T16:53:03;5.80;;;5.03;;
1370;SDS011;14306;49.942;11.570;2022-10-16T16:55:28;12.33;;;6.70;;
1370;SDS011;14306;49.942;11.570;2022-10-16T16:57:54;5.50;;;5.00;;
1370;SDS011;14306;49.942;11.570;2022-10-16T17:00:19;14.73;;;5.20;;
1370;SDS011;14306;49.942;11.570;2022-10-16T17:02:47;7.70;;;4.90;;
1370;SDS011;14306;49.942;11.570;2022-10-16T17:05:13;6.43;;;4.10;;